Latest Weather Observations for Warburto Point

IDS60801

Issued at 5:21 pm CST Tuesday 20 April 2021 (issued every 10 minutes, with the page automatically refreshed every 10 minutes)

About weather observations | Map of weather stations | Latest weather observations for SA | Other Formats
Station Details ID: 022053 Name: WARBURTO POINT Lat: -34.00 Lon: 137.53 Height: 1.0 m
Data from the previous 72 hours. | See also: Recent months at Warburto Point
Date/Time
CST
Temp
°C
App
Temp
°C
Dew
Point
°C
Rel
Hum
%
Delta-T
°C
Wind Press
QNH
hPa
Press
MSL
hPa
Rain since
9am
mm
Dir  Spd
km/h
Gust
km/h
Spd
kts
Gust
kts
20/05:00pm - - - - - SSW 24 30 13 16 - - -
20/04:30pm - - - - - SSW 24 30 13 16 - - -
20/04:00pm - - - - - SSW 30 37 16 20 - - -
20/03:30pm - - - - - SSW 30 37 16 20 - - -
20/03:00pm - - - - - S 30 39 16 21 - - -
20/02:30pm - - - - - S 28 35 15 19 - - -
20/02:00pm - - - - - S 32 39 17 21 - - -
20/01:30pm - - - - - S 30 37 16 20 - - -
20/01:00pm - - - - - S 32 41 17 22 - - -
20/12:30pm - - - - - S 32 39 17 21 - - -
20/12:00pm - - - - - S 32 41 17 22 - - -
20/11:30am - - - - - S 32 41 17 22 - - -
20/11:00am - - - - - S 33 41 18 22 - - -
20/10:45am - - - - - SW 37 50 20 27 - - -
20/10:30am - - - - - WSW 41 57 22 31 - - -
20/10:21am - - - - - W 39 57 21 31 - - -
20/10:00am - - - - - W 35 46 19 25 - - -
20/09:30am - - - - - W 33 41 18 22 - - -
20/09:00am - - - - - W 35 48 19 26 - - -
20/08:30am - - - - - W 35 46 19 25 - - -
20/08:00am - - - - - W 33 43 18 23 - - -
20/07:30am - - - - - W 32 39 17 21 - - -
20/07:00am - - - - - W 32 41 17 22 - - -
20/06:30am - - - - - W 28 37 15 20 - - -
20/06:00am - - - - - W 30 35 16 19 - - -
20/05:30am - - - - - W 28 32 15 17 - - -
20/05:00am - - - - - W 28 33 15 18 - - -
20/04:30am - - - - - W 26 32 14 17 - - -
20/04:00am - - - - - NW 22 28 12 15 - - -
20/03:30am - - - - - NW 22 28 12 15 - - -
20/03:00am - - - - - NW 19 24 10 13 - - -
20/02:30am - - - - - WNW 19 26 10 14 - - -
20/02:00am - - - - - WNW 24 30 13 16 - - -
20/01:30am - - - - - WNW 20 26 11 14 - - -
20/01:00am - - - - - WNW 20 28 11 15 - - -
20/12:30am - - - - - WSW 9 11 5 6 - - -
20/12:00am - - - - - WSW 11 13 6 7 - - -
 
Date/Time
CST
Temp
°C
App
Temp
°C
Dew
Point
°C
Rel
Hum
%
Delta-T
°C
Wind Press
QNH
hPa
Press
MSL
hPa
Rain since
9am
mm
Dir  Spd
km/h
Gust
km/h
Spd
kts
Gust
kts
19/11:30pm - - - - - SW 11 15 6 8 - - -
19/11:00pm - - - - - SW 13 17 7 9 - - -
19/10:30pm - - - - - S 11 17 6 9 - - -
19/10:00pm - - - - - S 11 13 6 7 - - -
19/09:30pm - - - - - S 13 15 7 8 - - -
19/09:00pm - - - - - SSE 11 13 6 7 - - -
19/08:30pm - - - - - N 11 15 6 8 - - -
19/08:00pm - - - - - N 7 7 4 4 - - -
19/07:30pm - - - - - CALM 0 0 0 0 - - -
19/07:00pm - - - - - N 6 7 3 4 - - -
19/06:30pm - - - - - N 9 13 5 7 - - -
19/06:00pm - - - - - N 9 11 5 6 - - -
19/05:30pm - - - - - N 9 11 5 6 - - -
19/05:00pm - - - - - N 11 15 6 8 - - -
19/04:30pm - - - - - N 13 17 7 9 - - -
19/04:00pm - - - - - N 11 15 6 8 - - -
19/03:30pm - - - - - N 9 13 5 7 - - -
19/03:00pm - - - - - NW 9 11 5 6 - - -
19/02:30pm - - - - - NW 11 13 6 7 - - -
19/02:00pm - - - - - WNW 13 17 7 9 - - -
19/01:30pm - - - - - W 17 22 9 12 - - -
19/01:00pm - - - - - WNW 15 19 8 10 - - -
19/12:30pm - - - - - NW 17 24 9 13 - - -
19/12:00pm - - - - - WNW 20 28 11 15 - - -
19/11:30am - - - - - NW 22 28 12 15 - - -
19/11:00am - - - - - NW 19 26 10 14 - - -
19/10:30am - - - - - NW 19 24 10 13 - - -
19/10:00am - - - - - NW 20 26 11 14 - - -
19/09:30am - - - - - NW 20 26 11 14 - - -
19/09:00am - - - - - NW 24 28 13 15 - - -
19/08:30am - - - - - NW 22 28 12 15 - - -
19/08:00am - - - - - NW 22 30 12 16 - - -
19/07:30am - - - - - NW 20 26 11 14 - - -
19/07:00am - - - - - NW 19 24 10 13 - - -
19/06:30am - - - - - NW 19 24 10 13 - - -
19/06:00am - - - - - NNE 11 17 6 9 - - -
19/05:30am - - - - - NE 15 19 8 10 - - -
19/05:00am - - - - - ENE 15 17 8 9 - - -
19/04:30am - - - - - ENE 15 17 8 9 - - -
19/04:00am - - - - - NE 13 15 7 8 - - -
19/03:30am - - - - - NE 13 15 7 8 - - -
19/03:00am - - - - - NE 13 15 7 8 - - -
19/02:30am - - - - - NE 15 17 8 9 - - -
19/02:00am - - - - - ENE 15 17 8 9 - - -
19/01:30am - - - - - NE 13 15 7 8 - - -
19/01:00am - - - - - NE 13 15 7 8 - - -
19/12:30am - - - - - SW 13 15 7 8 - - -
19/12:00am - - - - - SW 9 11 5 6 - - -
 
Date/Time
CST
Temp
°C
App
Temp
°C
Dew
Point
°C
Rel
Hum
%
Delta-T
°C
Wind Press
QNH
hPa
Press
MSL
hPa
Rain since
9am
mm
Dir  Spd
km/h
Gust
km/h
Spd
kts
Gust
kts
18/11:30pm - - - - - SW 11 11 6 6 - - -
18/11:00pm - - - - - SW 9 11 5 6 - - -
18/10:30pm - - - - - SW 7 9 4 5 - - -
18/10:00pm - - - - - SW 7 7 4 4 - - -
18/09:30pm - - - - - SW 9 11 5 6 - - -
18/09:00pm - - - - - SW 7 9 4 5 - - -
18/08:30pm - - - - - SW 7 9 4 5 - - -
18/08:00pm - - - - - SW 7 7 4 4 - - -
18/07:30pm - - - - - SW 9 11 5 6 - - -
18/07:00pm - - - - - SW 11 13 6 7 - - -
18/06:30pm - - - - - SW 11 15 6 8 - - -
18/06:00pm - - - - - SW 11 15 6 8 - - -
18/05:30pm - - - - - SW 13 19 7 10 - - -
18/05:00pm - - - - - SW 17 22 9 12 - - -
18/04:30pm - - - - - SW 17 22 9 12 - - -
18/04:00pm - - - - - SW 15 19 8 10 - - -
18/03:30pm - - - - - SSW 20 24 11 13 - - -
18/03:00pm - - - - - SW 15 22 8 12 - - -
18/02:30pm - - - - - SW 13 19 7 10 - - -
18/02:00pm - - - - - W 13 17 7 9 - - -
18/01:30pm - - - - - SW 11 15 6 8 - - -
18/01:00pm - - - - - SW 15 17 8 9 - - -
18/12:30pm - - - - - SW 22 30 12 16 - - -
18/12:00pm - - - - - WSW 26 32 14 17 - - -
18/11:30am - - - - - NW 13 17 7 9 - - -
18/11:00am - - - - - WNW 9 11 5 6 - - -
18/10:30am - - - - - S 6 9 3 5 - - -
18/10:00am - - - - - E 6 13 3 7 - - -
18/09:30am - - - - - SSE 13 17 7 9 - - -
18/09:00am - - - - - SSE 13 15 7 8 - - -
18/08:30am - - - - - SSE 15 20 8 11 - - -
18/08:00am - - - - - S 17 20 9 11 - - -
18/07:30am - - - - - ESE 6 7 3 4 - - -
18/07:00am - - - - - ESE 7 9 4 5 - - -
18/06:30am - - - - - ESE 7 9 4 5 - - -
18/06:00am - - - - - ESE 7 9 4 5 - - -
18/05:30am - - - - - SE 13 15 7 8 - - -
18/05:00am - - - - - SE 9 13 5 7 - - -
18/04:30am - - - - - SW 9 13 5 7 - - -
18/04:00am - - - - - SW 17 20 9 11 - - -
18/03:30am - - - - - CALM 0 0 0 0 - - -
18/03:00am - - - - - CALM 0 0 0 0 - - -
18/02:30am - - - - - CALM 0 0 0 0 - - -
18/02:00am - - - - - SE 9 9 5 5 - - -
18/01:30am - - - - - SE 11 13 6 7 - - -
18/01:00am - - - - - SE 13 15 7 8 - - -
18/12:30am - - - - - SE 19 22 10 12 - - -
18/12:00am - - - - - SE 15 24 8 13 - - -
 
Date/Time
CST
Temp
°C
App
Temp
°C
Dew
Point
°C
Rel
Hum
%
Delta-T
°C
Wind Press
QNH
hPa
Press
MSL
hPa
Rain since
9am
mm
Dir  Spd
km/h
Gust
km/h
Spd
kts
Gust
kts
17/11:30pm - - - - - ESE 11 13 6 7 - - -
17/11:00pm - - - - - ESE 9 11 5 6 - - -
17/10:30pm - - - - - ESE 9 11 5 6 - - -
17/10:00pm - - - - - ESE 9 9 5 5 - - -
17/09:30pm - - - - - ESE 11 13 6 7 - - -
17/09:00pm - - - - - ESE 9 11 5 6 - - -
17/08:30pm - - - - - ESE 11 15 6 8 - - -
17/08:00pm - - - - - S 17 26 9 14 - - -
17/07:30pm - - - - - SSW 20 26 11 14 - - -
17/07:00pm - - - - - SSW 24 30 13 16 - - -
17/06:30pm - - - - - SSW 24 32 13 17 - - -
17/06:00pm - - - - - SSW 24 32 13 17 - - -
17/05:30pm - - - - - SSW 26 33 14 18 - - -

Other formats

Comma delimited format used in spreadsheet applications
http://www.bom.gov.au/fwo/IDS60801/IDS60801.94666.axf

JavaScript Object Notation format (JSON) in row-major order
http://www.bom.gov.au/fwo/IDS60801/IDS60801.94666.json

Data quality

Most of these data are generated automatically and are frequently updated. Quality checks on data are not normally performed. It is possible for incorrect values to appear. Refer to information at About Latest Weather Observations and please check the disclaimer before using these data.